Time;durP1;ratioP1;P1;durP2;ratioP2;P2;SDS_P1;SDS_P2;PMS_P1;PMS_P2;Temp;Humidity;BMP_temperature;BMP_pressure;BME280_temperature;BME280_humidity;BME280_pressure;Samples;Min_cycle;Max_cycle;Signal;HPM_P1;HPM_P2
2023/05/29 00:04:38;;;;;;;6.55;2.00;;;25.70;52.00;;;;;;10489891;28;20128;-24
2023/05/29 00:09:40;;;;;;;;;;;25.60;52.10;;;;;;10484597;28;20049;-24
2023/05/29 00:14:43;;;;;;;5.18;2.92;;;25.50;52.20;;;;;;10492402;28;20013;-24
2023/05/29 00:19:45;;;;;;;7.13;3.25;;;25.60;52.10;;;;;;10497229;28;20084;-24
2023/05/29 00:24:47;;;;;;;5.18;2.65;;;25.50;52.00;;;;;;10500091;28;20076;-21
2023/05/29 00:29:50;;;;;;;6.20;3.22;;;25.50;52.00;;;;;;10495173;28;20133;-23
2023/05/29 00:34:52;;;;;;;7.25;3.00;;;25.40;52.10;;;;;;10493534;28;20055;-24
2023/05/29 00:39:54;;;;;;;8.45;2.83;;;25.40;52.10;;;;;;10488542;28;20099;-24
2023/05/29 00:44:58;;;;;;;7.43;2.90;;;25.20;52.10;;;;;;10493879;28;20055;-24
2023/05/29 00:50:00;;;;;;;4.50;2.60;;;25.20;52.10;;;;;;10490547;28;20087;-24
2023/05/29 00:55:03;;;;;;;4.13;2.40;;;25.20;52.10;;;;;;10489934;28;20193;-24
2023/05/29 01:00:09;;;;;;;6.82;2.63;;;25.20;52.10;;;;;;10487224;28;20075;-24
2023/05/29 01:05:11;;;;;;;7.07;2.92;;;25.00;52.10;;;;;;10495256;28;20040;-24
2023/05/29 01:10:13;;;;;;;6.07;2.80;;;25.00;52.10;;;;;;10483423;28;20044;-25
2023/05/29 01:15:25;;;;;;;6.05;3.08;;;25.00;51.90;;;;;;10481840;28;20107;-24
2023/05/29 01:20:30;;;;;;;;;;;25.00;52.10;;;;;;10484685;28;20072;-24
2023/05/29 01:25:47;;;;;;;5.72;2.45;;;25.00;52.20;;;;;;10489273;28;20042;-24
2023/05/29 01:30:51;;;;;;;4.18;2.35;;;24.90;52.30;;;;;;10489455;28;20048;-24
2023/05/29 01:35:53;;;;;;;6.72;2.90;;;24.80;52.20;;;;;;10482110;28;20080;-24
2023/05/29 01:40:55;;;;;;;5.80;2.75;;;24.70;52.00;;;;;;10487519;28;20106;-24
2023/05/29 01:45:59;;;;;;;4.47;2.35;;;24.60;52.30;;;;;;10477924;28;20132;-24
2023/05/29 01:51:01;;;;;;;5.32;2.20;;;24.70;52.00;;;;;;10490510;28;20063;-24
2023/05/29 01:56:04;;;;;;;6.15;1.95;;;24.60;52.10;;;;;;10485536;28;20809;-23
2023/05/29 02:01:07;;;;;;;5.28;2.17;;;24.60;52.80;;;;;;10485786;28;20052;-24
2023/05/29 02:06:10;;;;;;;4.38;2.10;;;24.50;51.80;;;;;;10489686;28;20048;-23
2023/05/29 02:11:12;;;;;;;4.00;2.30;;;24.50;52.20;;;;;;10488244;28;20052;-24
2023/05/29 02:16:16;;;;;;;4.88;2.28;;;24.50;52.30;;;;;;10491894;28;20049;-24
2023/05/29 02:21:18;;;;;;;4.10;1.88;;;24.40;52.30;;;;;;10497526;28;20453;-24
2023/05/29 02:26:20;;;;;;;5.03;2.38;;;24.40;52.10;;;;;;10490550;28;20106;-24
2023/05/29 02:31:23;;;;;;;3.97;2.22;;;24.30;51.90;;;;;;10481852;28;20072;-22
2023/05/29 02:36:25;;;;;;;5.72;1.95;;;24.30;52.10;;;;;;10501893;28;20143;-23
2023/05/29 02:41:27;;;;;;;3.85;1.70;;;24.20;52.30;;;;;;10497232;28;20089;-24
2023/05/29 02:46:30;;;;;;;3.80;1.92;;;24.30;52.70;;;;;;10478606;28;20044;-24
2023/05/29 02:51:33;;;;;;;3.10;1.77;;;24.20;52.20;;;;;;10488871;28;20102;-24
2023/05/29 02:56:35;;;;;;;5.72;2.67;;;24.10;52.10;;;;;;10484963;28;20062;-23
2023/05/29 03:15:29;;;;;;;3.83;1.50;;;24.00;51.30;;;;;;10509156;27;20655;-24
2023/05/29 03:20:31;;;;;;;4.25;1.77;;;24.00;52.30;;;;;;10523920;28;20040;-24
2023/05/29 03:25:33;;;;;;;3.58;1.95;;;23.90;52.60;;;;;;10530782;28;20458;-24
2023/05/29 03:30:36;;;;;;;;;;;23.70;52.40;;;;;;10524012;28;20075;-24
2023/05/29 03:35:38;;;;;;;5.80;2.08;;;23.80;52.10;;;;;;10522386;28;19920;-24
2023/05/29 03:40:40;;;;;;;4.30;1.42;;;23.70;52.30;;;;;;10517311;28;20079;-24
2023/05/29 03:45:43;;;;;;;;;;;23.80;52.40;;;;;;10536809;28;20143;-24
2023/05/29 03:50:45;;;;;;;4.93;2.10;;;23.70;52.10;;;;;;10538113;28;19986;-23
2023/05/29 03:55:47;;;;;;;6.78;1.83;;;23.60;52.00;;;;;;10516746;28;20453;-24
2023/05/29 04:00:50;;;;;;;;;;;23.70;52.10;;;;;;10522215;28;20145;-23
2023/05/29 04:05:52;;;;;;;2.53;1.48;;;23.60;52.30;;;;;;10521407;28;19924;-23
2023/05/29 04:10:54;;;;;;;;;;;23.50;52.40;;;;;;10509835;28;20103;-23
2023/05/29 04:15:57;;;;;;;6.25;1.80;;;23.60;52.20;;;;;;10516465;28;19942;-23
2023/05/29 04:20:59;;;;;;;5.25;1.92;;;23.50;52.70;;;;;;10518212;28;20071;-23
2023/05/29 04:26:01;;;;;;;4.07;1.67;;;23.50;52.20;;;;;;10495205;28;20088;-23
2023/05/29 04:31:05;;;;;;;6.93;1.30;;;23.50;52.20;;;;;;10485289;28;20071;-23
2023/05/29 04:36:08;;;;;;;4.32;1.52;;;23.40;52.30;;;;;;10493819;28;20045;-23
2023/05/29 04:41:10;;;;;;;3.85;1.30;;;23.50;52.20;;;;;;10496878;28;20040;-22
2023/05/29 04:46:15;;;;;;;2.83;1.20;;;23.50;52.10;;;;;;10478227;28;20563;-23
2023/05/29 04:51:19;;;;;;;1.75;1.02;;;23.40;52.00;;;;;;10507701;28;20059;-23
2023/05/29 04:56:21;;;;;;;6.38;1.67;;;23.50;52.30;;;;;;10488988;28;20048;-24
2023/05/29 05:01:25;;;;;;;2.92;1.48;;;23.40;51.90;;;;;;10487900;28;20060;-23
2023/05/29 05:06:27;;;;;;;3.25;1.38;;;23.40;52.20;;;;;;10480468;28;20143;-23
2023/05/29 05:11:29;;;;;;;;;;;23.40;52.20;;;;;;10476669;28;20090;-23
2023/05/29 05:16:32;;;;;;;2.58;1.33;;;23.40;52.20;;;;;;10484024;28;19950;-23
2023/05/29 05:21:35;;;;;;;1.75;1.00;;;23.40;52.00;;;;;;10485766;28;20055;-23
2023/05/29 05:26:37;;;;;;;6.18;1.35;;;23.40;52.00;;;;;;10484349;28;20041;-23
2023/05/29 05:31:40;;;;;;;;;;;23.30;52.20;;;;;;10483939;28;20048;-24
2023/05/29 05:36:42;;;;;;;2.08;0.90;;;23.50;51.70;;;;;;10477682;28;20019;-23
2023/05/29 05:41:43;;;;;;;;;;;23.40;52.00;;;;;;10476300;28;20068;-24
2023/05/29 05:46:47;;;;;;;3.53;1.45;;;23.30;51.90;;;;;;10480108;28;19934;-24
2023/05/29 05:51:50;;;;;;;4.60;1.85;;;23.40;51.90;;;;;;10482756;28;20045;-24
2023/05/29 05:56:52;;;;;;;4.45;1.00;;;23.30;52.10;;;;;;10480097;28;20040;-24
2023/05/29 06:01:56;;;;;;;;;;;23.30;52.00;;;;;;10487546;28;20131;-24
2023/05/29 06:06:58;;;;;;;5.35;1.63;;;23.30;51.90;;;;;;10482314;28;19928;-23
2023/05/29 06:11:59;;;;;;;;;;;23.20;51.90;;;;;;10483908;28;20062;-23
2023/05/29 06:17:03;;;;;;;5.47;1.13;;;23.20;51.90;;;;;;10478379;28;19921;-23
2023/05/29 06:22:06;;;;;;;2.90;0.95;;;23.20;51.90;;;;;;10483845;28;20135;-24
2023/05/29 06:27:08;;;;;;;4.22;1.13;;;23.20;51.80;;;;;;10481566;28;20664;-22
2023/05/29 06:32:11;;;;;;;4.65;0.93;;;23.30;52.00;;;;;;10472317;28;20466;-25
2023/05/29 06:37:13;;;;;;;2.78;1.17;;;23.30;51.70;;;;;;10477512;28;20052;-24
2023/05/29 06:42:14;;;;;;;;;;;23.30;51.80;;;;;;10474716;28;20488;-23
2023/05/29 06:47:17;;;;;;;3.53;1.20;;;23.40;51.80;;;;;;10474554;28;20019;-23
2023/05/29 06:52:19;;;;;;;2.35;0.77;;;23.30;52.10;;;;;;10476712;28;20118;-23
2023/05/29 06:57:21;;;;;;;;;;;23.30;52.20;;;;;;10468729;28;20090;-23
2023/05/29 07:02:24;;;;;;;6.22;1.50;;;23.30;52.30;;;;;;10483356;28;20007;-22
2023/05/29 07:07:28;;;;;;;3.65;1.13;;;23.30;52.00;;;;;;10480970;28;20454;-24
2023/05/29 07:12:30;;;;;;;1.92;0.80;;;23.50;52.00;;;;;;10480141;28;20074;-25
2023/05/29 07:17:34;;;;;;;5.90;1.27;;;23.50;52.00;;;;;;10484005;28;20087;-25
2023/05/29 07:22:36;;;;;;;4.90;1.25;;;23.50;52.20;;;;;;10476959;28;20481;-24
2023/05/29 07:27:37;;;;;;;2.85;1.30;;;23.50;52.10;;;;;;10476490;28;20045;-25
2023/05/29 07:32:41;;;;;;;2.13;0.60;;;23.40;51.80;;;;;;10488543;28;20430;-24
2023/05/29 07:37:42;;;;;;;4.00;1.25;;;23.50;51.60;;;;;;10481661;28;20512;-24
2023/05/29 07:42:44;;;;;;;;;;;23.70;52.00;;;;;;10492897;28;20465;-24
2023/05/29 07:47:47;;;;;;;3.35;0.98;;;23.80;51.40;;;;;;10476975;28;19930;-30
2023/05/29 07:52:50;;;;;;;5.10;1.10;;;23.60;52.00;;;;;;10485215;28;20128;-24
2023/05/29 07:57:52;;;;;;;4.13;1.20;;;23.70;52.40;;;;;;10497100;28;20152;-23
2023/05/29 08:02:57;;;;;;;3.45;0.90;;;23.90;51.60;;;;;;10491164;28;20055;-25
2023/05/29 08:07:59;;;;;;;4.88;0.82;;;23.80;51.90;;;;;;10501709;28;20083;-23
2023/05/29 08:13:01;;;;;;;2.03;0.90;;;23.90;51.40;;;;;;10495170;28;20059;-25
2023/05/29 08:18:04;;;;;;;6.38;1.27;;;24.00;52.00;;;;;;10486797;28;20082;-25
2023/05/29 08:23:06;;;;;;;4.13;1.35;;;24.10;51.40;;;;;;10481126;28;20062;-25
2023/05/29 08:28:08;;;;;;;;;;;23.80;51.80;;;;;;10483770;28;20119;-25
2023/05/29 08:33:11;;;;;;;10.73;1.15;;;24.10;51.40;;;;;;10489899;28;20031;-24
2023/05/29 08:38:13;;;;;;;3.53;0.90;;;24.20;51.20;;;;;;10498745;28;20068;-23
2023/05/29 08:43:16;;;;;;;;;;;24.10;51.40;;;;;;10493901;28;20151;-24
2023/05/29 08:48:21;;;;;;;4.43;1.20;;;24.10;52.10;;;;;;10497315;28;20461;-23
2023/05/29 08:53:24;;;;;;;9.73;1.50;;;23.70;51.00;;;;;;10494233;28;20143;-23
2023/05/29 08:58:27;;;;;;;4.70;1.85;;;23.70;50.50;;;;;;10494508;28;20062;-24
2023/05/29 09:03:30;;;;;;;4.70;1.65;;;24.10;51.20;;;;;;10492606;28;20045;-25
2023/05/29 09:08:32;;;;;;;6.70;1.73;;;24.20;50.80;;;;;;10494874;28;20444;-25
2023/05/29 09:13:35;;;;;;;6.32;1.50;;;23.80;51.60;;;;;;10490012;28;20094;-24
2023/05/29 09:18:38;;;;;;;7.47;1.92;;;24.10;50.90;;;;;;10487013;28;20044;-22
2023/05/29 09:23:41;;;;;;;3.47;1.00;;;24.50;49.60;;;;;;10465411;28;20139;-23
2023/05/29 09:28:43;;;;;;;3.83;1.17;;;24.60;49.50;;;;;;10479373;28;20136;-23
2023/05/29 09:33:50;;;;;;;6.60;1.73;;;24.50;49.90;;;;;;10492606;28;20416;-24
2023/05/29 09:38:52;;;;;;;5.28;1.45;;;23.70;49.50;;;;;;10492465;28;20045;-25
2023/05/29 09:43:55;;;;;;;4.75;1.40;;;24.10;49.80;;;;;;10474530;28;20445;-24
2023/05/29 09:49:02;;;;;;;6.22;1.42;;;24.30;49.30;;;;;;10475330;28;20048;-24
2023/05/29 09:54:16;;;;;;;7.30;1.50;;;24.60;49.50;;;;;;10481815;28;20044;-24
2023/05/29 09:59:20;;;;;;;3.97;1.60;;;24.70;48.90;;;;;;10474466;28;20544;-25
2023/05/29 10:04:24;;;;;;;7.80;2.58;;;24.50;48.30;;;;;;10481608;28;20052;-24
2023/05/29 10:09:28;;;;;;;7.05;1.95;;;24.60;49.30;;;;;;10480473;28;20120;-24
2023/05/29 10:14:33;;;;;;;6.32;1.77;;;24.70;48.80;;;;;;10478293;28;20063;-24
2023/05/29 10:19:39;;;;;;;5.07;1.50;;;24.50;49.70;;;;;;10479202;28;20633;-23
2023/05/29 10:24:41;;;;;;;5.95;2.08;;;24.40;49.90;;;;;;10478523;28;20056;-25
2023/05/29 10:29:50;;;;;;;4.47;1.77;;;24.90;49.30;;;;;;10484508;28;20114;-24
2023/05/29 10:35:01;;;;;;;6.70;1.90;;;24.90;49.20;;;;;;10493831;28;20049;-24
2023/05/29 10:40:08;;;;;;;4.95;1.73;;;25.10;49.50;;;;;;10470428;28;20037;-24
2023/05/29 10:45:11;;;;;;;6.45;1.65;;;25.00;49.30;;;;;;10479126;28;20079;-23
2023/05/29 10:50:34;;;;;;;5.20;1.65;;;24.80;48.50;;;;;;10476235;28;20048;-22
2023/05/29 10:55:38;;;;;;;3.72;1.60;;;25.00;49.50;;;;;;10485610;28;20052;-22
2023/05/29 11:00:42;;;;;;;6.07;1.58;;;24.70;50.10;;;;;;10483767;28;20071;-22
2023/05/29 11:05:58;;;;;;;13.05;1.80;;;24.10;47.90;;;;;;10489485;28;20617;-22
2023/05/29 11:11:00;;;;;;;7.18;2.42;;;23.00;51.70;;;;;;10484330;28;20088;-24
2023/05/29 11:16:05;;;;;;;;;;;23.80;51.70;;;;;;10482248;28;20040;-23
2023/05/29 11:21:25;;;;;;;7.53;2.88;;;24.60;50.60;;;;;;10484902;28;20066;-23
2023/05/29 11:26:28;;;;;;;5.88;2.28;;;24.20;51.50;;;;;;10480363;28;20056;-23
2023/05/29 11:31:34;;;;;;;8.23;2.55;;;24.10;51.50;;;;;;10481453;28;20179;-25
2023/05/29 11:36:38;;;;;;;10.98;2.60;;;24.00;51.40;;;;;;10493571;28;20151;-22
2023/05/29 11:41:40;;;;;;;6.70;2.38;;;24.30;50.60;;;;;;10484236;28;20045;-23
2023/05/29 11:46:42;;;;;;;8.95;2.20;;;24.60;49.60;;;;;;10491492;28;20688;-24
2023/05/29 11:51:45;;;;;;;;;;;23.80;50.70;;;;;;10485842;28;20072;-23
2023/05/29 11:56:49;;;;;;;8.07;3.00;;;24.90;50.60;;;;;;10491088;28;20018;-23
2023/05/29 12:01:51;;;;;;;11.02;3.65;;;24.70;50.60;;;;;;10488143;28;20055;-23
2023/05/29 12:06:55;;;;;;;7.15;2.95;;;23.40;53.30;;;;;;10484259;28;20497;-22
2023/05/29 12:12:02;;;;;;;11.20;3.10;;;24.20;51.60;;;;;;10493325;28;20087;-22
2023/05/29 12:17:06;;;;;;;9.38;3.17;;;24.60;51.00;;;;;;10503495;28;20596;-23
2023/05/29 12:22:10;;;;;;;12.88;3.35;;;24.00;52.60;;;;;;10489421;28;20040;-22
2023/05/29 12:27:12;;;;;;;8.55;2.90;;;24.00;52.20;;;;;;10495931;28;20508;-25
2023/05/29 12:32:13;;;;;;;11.05;3.00;;;23.40;53.60;;;;;;10485756;28;20555;-23
2023/05/29 12:37:23;;;;;;;11.70;2.88;;;23.60;53.20;;;;;;10483990;28;20052;-24
2023/05/29 12:42:25;;;;;;;7.80;2.97;;;23.20;54.80;;;;;;10488657;28;20504;-25
2023/05/29 12:47:26;;;;;;;17.45;3.50;;;23.90;53.70;;;;;;10489893;28;20472;-28
2023/05/29 12:52:30;;;;;;;;;;;23.60;52.20;;;;;;10489610;28;20051;-25
2023/05/29 12:57:32;;;;;;;11.63;3.15;;;23.10;52.50;;;;;;10486329;28;20207;-24
2023/05/29 13:02:34;;;;;;;13.88;3.13;;;23.20;53.70;;;;;;10488575;28;20094;-26
2023/05/29 13:07:37;;;;;;;9.70;2.58;;;23.30;54.50;;;;;;10473465;28;20530;-25
2023/05/29 13:12:39;;;;;;;7.25;3.10;;;24.50;52.00;;;;;;10498297;28;20051;-25
2023/05/29 13:17:41;;;;;;;8.57;2.45;;;24.90;52.30;;;;;;10478382;28;20060;-25
2023/05/29 13:22:46;;;;;;;7.82;2.42;;;25.40;51.20;;;;;;10490303;28;20072;-24
2023/05/29 13:27:49;;;;;;;7.93;2.30;;;25.30;50.90;;;;;;10491509;28;20079;-24
2023/05/29 13:32:52;;;;;;;15.23;3.13;;;25.40;51.00;;;;;;10499744;28;20139;-22
2023/05/29 13:37:55;;;;;;;6.55;2.55;;;25.10;48.40;;;;;;10490795;28;20135;-24
2023/05/29 13:42:57;;;;;;;11.18;2.20;;;25.90;51.00;;;;;;10486764;28;20398;-25
2023/05/29 13:48:03;;;;;;;6.63;2.13;;;25.90;51.30;;;;;;10487988;28;20099;-24
2023/05/29 13:53:07;;;;;;;8.98;2.05;;;25.70;51.20;;;;;;10488336;28;20438;-25
2023/05/29 13:58:09;;;;;;;7.93;2.33;;;26.10;50.60;;;;;;10489619;28;20076;-24
2023/05/29 14:03:10;;;;;;;5.07;1.95;;;25.90;51.70;;;;;;10493876;28;20045;-24
2023/05/29 14:08:14;;;;;;;6.15;2.25;;;26.00;51.40;;;;;;10489865;28;20118;-23
2023/05/29 14:13:16;;;;;;;5.68;1.98;;;26.30;50.10;;;;;;10485672;28;20092;-24
2023/05/29 14:18:18;;;;;;;9.30;2.10;;;26.30;51.00;;;;;;10485373;28;20456;-24
2023/05/29 14:23:22;;;;;;;6.88;2.28;;;25.90;50.80;;;;;;10488952;28;20079;-23
2023/05/29 14:28:24;;;;;;;6.65;2.00;;;26.10;50.80;;;;;;10489008;28;20084;-24
2023/05/29 14:33:26;;;;;;;7.47;1.80;;;26.30;51.20;;;;;;10477120;28;20076;-24
2023/05/29 14:38:29;;;;;;;4.82;1.88;;;26.60;50.10;;;;;;10479291;28;20036;-24
2023/05/29 14:43:31;;;;;;;6.25;1.98;;;26.30;51.70;;;;;;10487767;28;20097;-24
2023/05/29 14:48:33;;;;;;;6.18;1.50;;;26.50;51.20;;;;;;10488114;28;20040;-24
2023/05/29 14:53:38;;;;;;;11.02;3.00;;;26.50;51.40;;;;;;10479539;28;20056;-25
2023/05/29 14:58:42;;;;;;;8.45;2.03;;;26.20;47.90;;;;;;10485862;28;20537;-24
2023/05/29 15:03:44;;;;;;;3.53;1.58;;;26.40;51.50;;;;;;10497088;28;20486;-24
2023/05/29 15:08:50;;;;;;;7.30;2.22;;;26.90;51.40;;;;;;10487179;28;20544;-24
2023/05/29 15:13:52;;;;;;;6.97;1.70;;;27.20;50.40;;;;;;10488341;28;20060;-24
2023/05/29 15:18:54;;;;;;;13.75;2.10;;;27.60;51.00;;;;;;10487637;28;20048;-24
2023/05/29 15:23:57;;;;;;;7.10;1.92;;;27.20;50.10;;;;;;10489995;28;20048;-26
2023/05/29 15:28:59;;;;;;;9.30;2.40;;;26.90;51.00;;;;;;10478071;28;20049;-23
2023/05/29 15:34:01;;;;;;;5.57;1.85;;;27.50;50.70;;;;;;10486543;28;20463;-24
2023/05/29 15:39:04;;;;;;;7.65;1.80;;;27.60;51.50;;;;;;10483142;28;20559;-23
2023/05/29 15:44:06;;;;;;;8.77;1.98;;;27.80;51.40;;;;;;10479795;28;20045;-25
2023/05/29 15:49:10;;;;;;;7.78;3.08;;;28.00;50.80;;;;;;10478161;28;20045;-24
2023/05/29 15:54:13;;;;;;;8.35;2.28;;;27.10;51.10;;;;;;10488253;28;20123;-24
2023/05/29 15:59:15;;;;;;;3.38;1.70;;;27.80;50.50;;;;;;10482632;28;20128;-23
2023/05/29 16:04:17;;;;;;;6.82;1.73;;;28.20;51.60;;;;;;10482359;28;20044;-25
2023/05/29 16:09:20;;;;;;;6.63;1.85;;;28.10;52.50;;;;;;10480865;28;20562;-24
2023/05/29 16:14:22;;;;;;;7.45;2.08;;;27.90;52.20;;;;;;10479706;28;20052;-25
2023/05/29 16:19:24;;;;;;;9.13;2.00;;;28.20;50.30;;;;;;10483347;28;20708;-24
2023/05/29 16:24:27;;;;;;;4.95;1.80;;;28.20;51.30;;;;;;10482508;28;20084;-23
2023/05/29 16:29:33;;;;;;;13.02;2.17;;;28.20;50.90;;;;;;10488720;28;20044;-23
2023/05/29 16:34:35;;;;;;;6.97;2.38;;;28.00;51.50;;;;;;10491578;28;20067;-25
2023/05/29 16:39:39;;;;;;;9.85;2.63;;;28.50;51.60;;;;;;10492612;28;20076;-23
2023/05/29 16:44:42;;;;;;;4.10;1.73;;;27.70;52.50;;;;;;10489392;28;20083;-24
2023/05/29 16:49:44;;;;;;;5.68;1.92;;;27.70;54.10;;;;;;10497315;28;20071;-24
2023/05/29 16:54:47;;;;;;;9.98;2.30;;;28.40;52.50;;;;;;10485065;28;20049;-24
2023/05/29 16:59:50;;;;;;;12.80;2.67;;;28.50;50.80;;;;;;10487159;28;20151;-21
2023/05/29 17:04:51;;;;;;;11.35;2.08;;;28.70;51.50;;;;;;10489736;28;20056;-22
2023/05/29 17:09:55;;;;;;;8.25;2.67;;;28.30;50.40;;;;;;10480418;28;20048;-23
2023/05/29 17:14:57;;;;;;;17.45;3.38;;;28.30;51.80;;;;;;10477568;28;20059;-24
2023/05/29 17:19:58;;;;;;;8.85;2.85;;;28.40;52.50;;;;;;10488347;28;20128;-24
2023/05/29 17:25:02;;;;;;;10.13;2.08;;;28.70;52.70;;;;;;10485292;28;20041;-23
2023/05/29 17:30:05;;;;;;;7.88;2.70;;;28.30;52.00;;;;;;10489597;28;20049;-24
2023/05/29 17:35:07;;;;;;;7.75;2.58;;;28.30;52.20;;;;;;10486582;28;20048;-23
2023/05/29 17:40:11;;;;;;;9.45;2.50;;;28.50;51.20;;;;;;10489836;28;20092;-24
2023/05/29 17:45:13;;;;;;;5.97;2.13;;;28.50;51.20;;;;;;10486248;28;20071;-23
2023/05/29 17:50:16;;;;;;;7.00;2.13;;;27.90;51.80;;;;;;10489583;28;20151;-24
2023/05/29 17:55:19;;;;;;;5.90;1.70;;;28.30;50.90;;;;;;10483825;28;20084;-24
2023/05/29 18:00:22;;;;;;;6.28;1.70;;;28.50;50.60;;;;;;10491952;28;20048;-23
2023/05/29 18:05:24;;;;;;;7.97;2.10;;;28.50;51.00;;;;;;10496964;28;20041;-25
2023/05/29 18:10:28;;;;;;;8.23;2.00;;;28.30;49.70;;;;;;10489248;28;20071;-24
2023/05/29 18:15:30;;;;;;;7.32;1.77;;;28.10;51.20;;;;;;10488121;28;20051;-24
2023/05/29 18:20:32;;;;;;;8.52;1.83;;;28.10;49.50;;;;;;10489900;28;20082;-24
2023/05/29 18:25:35;;;;;;;9.85;1.63;;;28.20;51.50;;;;;;10488082;28;20048;-24
2023/05/29 18:30:37;;;;;;;8.68;1.48;;;28.50;51.00;;;;;;10481974;28;20118;-23
2023/05/29 18:35:39;;;;;;;3.85;1.45;;;28.30;50.10;;;;;;10485887;28;20402;-25
2023/05/29 18:40:43;;;;;;;6.32;1.98;;;28.60;50.20;;;;;;10486370;28;20046;-23
2023/05/29 18:45:45;;;;;;;7.57;1.83;;;28.50;50.20;;;;;;10487622;28;20056;-23
2023/05/29 18:50:46;;;;;;;7.28;1.88;;;28.40;50.30;;;;;;10484301;28;20079;-23
2023/05/29 18:55:50;;;;;;;6.50;1.80;;;28.30;49.40;;;;;;10487891;28;20199;-24
2023/05/29 19:00:52;;;;;;;4.72;1.73;;;28.60;49.90;;;;;;10487346;28;20056;-25
2023/05/29 19:05:54;;;;;;;5.05;1.48;;;28.60;50.20;;;;;;10486754;28;20886;-23
2023/05/29 19:10:58;;;;;;;5.63;1.52;;;28.60;49.80;;;;;;10486480;28;20165;-25
2023/05/29 19:15:59;;;;;;;4.80;1.48;;;28.40;50.00;;;;;;10489552;28;20047;-24
2023/05/29 19:21:02;;;;;;;3.95;1.40;;;28.50;49.40;;;;;;10489570;28;20836;-23
2023/05/29 19:26:05;;;;;;;5.78;2.00;;;28.50;49.40;;;;;;10491085;28;20045;-26
2023/05/29 19:31:07;;;;;;;5.45;1.55;;;28.40;49.60;;;;;;10480045;28;20040;-24
2023/05/29 19:36:10;;;;;;;7.40;2.13;;;28.30;49.70;;;;;;10485315;28;20090;-23
2023/05/29 19:41:13;;;;;;;5.70;2.20;;;28.10;50.00;;;;;;10479128;28;20157;-25
2023/05/29 19:46:15;;;;;;;4.47;1.90;;;28.00;50.30;;;;;;10484956;28;20046;-24
2023/05/29 19:51:17;;;;;;;7.65;1.73;;;28.10;50.00;;;;;;10489932;28;20551;-23
2023/05/29 19:56:20;;;;;;;6.85;1.95;;;28.10;50.00;;;;;;10485989;28;20053;-22
2023/05/29 20:01:22;;;;;;;9.02;2.13;;;27.90;50.00;;;;;;10487663;28;20141;-22
2023/05/29 20:06:24;;;;;;;8.35;2.33;;;27.90;50.00;;;;;;10491540;28;20538;-25
2023/05/29 20:11:27;;;;;;;4.78;1.65;;;27.80;50.00;;;;;;10488097;28;20072;-24
2023/05/29 20:16:29;;;;;;;10.18;2.22;;;27.80;50.00;;;;;;10484370;28;20094;-23
2023/05/29 20:21:32;;;;;;;9.45;2.00;;;27.70;50.10;;;;;;10493306;28;20045;-24
2023/05/29 20:26:35;;;;;;;9.60;2.20;;;27.60;50.40;;;;;;10493694;28;20603;-24
2023/05/29 20:31:38;;;;;;;5.90;2.22;;;27.50;50.40;;;;;;10490219;28;20068;-24
2023/05/29 20:36:41;;;;;;;10.77;3.45;;;27.40;50.70;;;;;;10489604;28;20585;-26
2023/05/29 20:41:44;;;;;;;7.22;2.53;;;27.40;50.50;;;;;;10503979;28;20041;-24
2023/05/29 20:46:46;;;;;;;6.97;2.17;;;27.30;50.60;;;;;;10496530;28;20049;-24
2023/05/29 20:51:49;;;;;;;8.68;2.88;;;27.20;50.50;;;;;;10503882;28;20059;-24
2023/05/29 20:56:52;;;;;;;9.55;2.92;;;27.20;50.50;;;;;;10488551;28;20486;-24
2023/05/29 21:01:55;;;;;;;7.00;2.85;;;27.10;50.20;;;;;;10493153;28;20102;-25
2023/05/29 21:06:57;;;;;;;10.55;3.38;;;27.10;50.70;;;;;;10491854;28;20056;-25
2023/05/29 21:12:01;;;;;;;7.40;2.63;;;26.80;50.60;;;;;;10497753;28;20045;-25
2023/05/29 21:17:04;;;;;;;8.32;3.17;;;26.90;50.60;;;;;;10492156;28;20539;-25
2023/05/29 21:22:06;;;;;;;11.15;3.85;;;26.90;50.50;;;;;;10490570;28;20119;-25
2023/05/29 21:27:09;;;;;;;8.77;3.88;;;26.60;50.80;;;;;;10484514;28;20135;-24
2023/05/29 21:32:11;;;;;;;8.93;5.18;;;26.70;50.60;;;;;;10483044;28;20049;-24
2023/05/29 21:37:13;;;;;;;10.73;5.30;;;26.70;50.50;;;;;;10488922;28;20123;-25
2023/05/29 21:42:16;;;;;;;11.88;5.68;;;26.60;50.50;;;;;;10484135;28;20068;-25
2023/05/29 21:47:19;;;;;;;11.93;5.40;;;26.60;50.50;;;;;;10461603;28;20059;-25
2023/05/29 21:52:21;;;;;;;8.82;4.45;;;26.50;50.30;;;;;;10485600;28;20579;-25
2023/05/29 21:57:24;;;;;;;13.70;6.47;;;26.40;50.40;;;;;;10484761;28;20405;-24
2023/05/29 22:02:26;;;;;;;12.07;5.78;;;26.40;50.40;;;;;;10487097;28;20056;-25
2023/05/29 22:07:28;;;;;;;11.23;5.43;;;26.30;50.50;;;;;;10492869;28;20158;-24
2023/05/29 22:12:31;;;;;;;9.77;5.43;;;26.20;50.40;;;;;;10490528;28;20495;-24
2023/05/29 22:17:34;;;;;;;10.10;5.00;;;26.20;50.40;;;;;;10488471;28;20045;-25
2023/05/29 22:22:37;;;;;;;10.35;5.88;;;26.00;50.60;;;;;;10483812;28;20408;-23
2023/05/29 22:27:42;;;;;;;13.63;7.00;;;26.00;50.40;;;;;;10485558;28;20064;-24
2023/05/29 22:32:43;;;;;;;9.77;5.47;;;26.00;50.40;;;;;;10489287;28;20060;-23
2023/05/29 22:37:45;;;;;;;8.82;4.32;;;25.90;50.40;;;;;;10482674;28;20564;-29
2023/05/29 22:42:48;;;;;;;8.45;5.25;;;25.70;50.40;;;;;;10479376;28;20127;-24
2023/05/29 22:47:50;;;;;;;10.63;5.43;;;25.70;50.60;;;;;;10478672;28;20076;-24
2023/05/29 22:52:52;;;;;;;14.68;6.15;;;25.70;50.50;;;;;;10480632;28;20552;-24
2023/05/29 22:57:55;;;;;;;10.77;5.55;;;25.60;50.40;;;;;;10482089;28;20055;-22
2023/05/29 23:02:58;;;;;;;8.55;5.00;;;25.60;50.40;;;;;;10496189;28;20075;-23
2023/05/29 23:08:00;;;;;;;9.75;5.40;;;25.50;50.50;;;;;;10481726;28;20484;-23
2023/05/29 23:13:04;;;;;;;10.32;5.13;;;25.50;50.40;;;;;;10480162;28;20052;-25
2023/05/29 23:18:08;;;;;;;8.80;4.68;;;25.40;50.50;;;;;;10481522;28;20059;-25
2023/05/29 23:23:11;;;;;;;7.05;3.92;;;25.40;50.50;;;;;;10478833;28;20140;-24
2023/05/29 23:28:14;;;;;;;9.57;4.60;;;25.30;50.40;;;;;;10491290;28;20037;-24
2023/05/29 23:33:16;;;;;;;9.77;5.28;;;25.30;50.60;;;;;;10487998;28;20040;-24
2023/05/29 23:38:18;;;;;;;10.10;5.68;;;25.20;50.40;;;;;;10476264;28;20052;-24
2023/05/29 23:43:21;;;;;;;9.18;4.47;;;25.20;50.50;;;;;;10496842;28;20054;-26
2023/05/29 23:48:24;;;;;;;9.02;4.28;;;25.10;50.40;;;;;;10489004;28;20106;-25
2023/05/29 23:53:26;;;;;;;8.30;4.22;;;25.00;50.50;;;;;;10487728;28;20780;-23
2023/05/29 23:58:29;;;;;;;7.95;4.65;;;24.90;50.40;;;;;;10490687;28;20049;-23
